Time;durP1;ratioP1;P1;durP2;ratioP2;P2;SDS_P1;SDS_P2;PMS_P1;PMS_P2;Temp;Humidity;BMP_temperature;BMP_pressure;BME280_temperature;BME280_humidity;BME280_pressure;Samples;Min_cycle;Max_cycle;Signal;HPM_P1;HPM_P2
2022/08/03 00:00:49;;;;;;;5.18;1.60;;;19.80;99.90;;;;;;5043943;28;20586;-85
2022/08/03 00:03:15;;;;;;;6.20;1.58;;;19.70;99.90;;;;;;5068357;28;20036;-85
2022/08/03 00:05:41;;;;;;;8.32;1.92;;;19.70;99.90;;;;;;5047486;28;20051;-84
2022/08/03 00:08:07;;;;;;;6.65;1.90;;;19.70;99.90;;;;;;5048221;28;20406;-85
2022/08/03 00:10:33;;;;;;;5.65;1.98;;;19.70;99.90;;;;;;5034800;28;20628;-84
2022/08/03 00:12:59;;;;;;;9.23;2.75;;;19.70;99.90;;;;;;5049872;28;20051;-84
2022/08/03 00:15:25;;;;;;;6.53;2.20;;;19.60;99.90;;;;;;5051109;28;20055;-84
2022/08/03 00:17:52;;;;;;;8.82;2.22;;;19.60;99.90;;;;;;5050740;28;20049;-83
2022/08/03 00:20:18;;;;;;;8.70;2.28;;;19.50;99.90;;;;;;5066721;28;20048;-84
2022/08/03 00:22:44;;;;;;;6.72;2.35;;;19.40;99.90;;;;;;5081831;28;20632;-83
2022/08/03 00:25:10;;;;;;;7.38;2.05;;;19.40;99.90;;;;;;5016137;28;20039;-84
2022/08/03 00:27:36;;;;;;;8.32;2.28;;;19.40;99.90;;;;;;5077413;28;20055;-84
2022/08/03 00:30:03;;;;;;;6.63;2.05;;;19.30;99.90;;;;;;5060544;28;20044;-84
2022/08/03 00:32:29;;;;;;;7.53;2.20;;;19.30;99.90;;;;;;5052059;28;20043;-84
2022/08/03 00:34:55;;;;;;;6.57;2.35;;;19.20;99.90;;;;;;5075813;28;20055;-83
2022/08/03 00:37:22;;;;;;;8.40;2.10;;;19.20;99.90;;;;;;5045887;28;20093;-84
2022/08/03 00:39:48;;;;;;;6.45;2.35;;;19.10;99.90;;;;;;5029787;28;20521;-84
2022/08/03 00:42:14;;;;;;;7.18;2.30;;;19.10;99.90;;;;;;5050322;28;20048;-84
2022/08/03 00:44:44;;;;;;;5.45;2.45;;;19.00;99.90;;;;;;5022201;27;20054;-84
2022/08/03 00:47:11;;;;;;;9.98;2.60;;;18.90;99.90;;;;;;5069805;28;20039;-84
2022/08/03 00:49:38;;;;;;;7.20;3.22;;;18.90;99.90;;;;;;5082853;27;20407;-83
2022/08/03 00:52:07;;;;;;;12.57;3.08;;;18.80;99.90;;;;;;5065016;28;20490;-84
2022/08/03 00:54:34;;;;;;;9.48;2.97;;;18.80;99.90;;;;;;5101166;27;20047;-84
2022/08/03 00:57:01;;;;;;;9.65;2.50;;;18.70;99.90;;;;;;5075881;27;20122;-83
2022/08/03 00:59:28;;;;;;;9.35;2.75;;;18.70;99.90;;;;;;5068186;28;20126;-84
2022/08/03 01:01:55;;;;;;;9.07;3.00;;;18.70;99.90;;;;;;5081353;27;20058;-84
2022/08/03 01:04:21;;;;;;;7.00;2.72;;;18.60;99.90;;;;;;5045439;28;20040;-84
2022/08/03 01:07:19;;;;;;;7.45;2.83;;;18.60;99.90;;;;;;5050078;28;20047;-84
2022/08/03 01:10:24;;;;;;;5.85;2.70;;;18.60;99.90;;;;;;5059096;27;20126;-84
2022/08/03 01:12:52;;;;;;;7.45;2.72;;;18.50;99.90;;;;;;5079744;28;20503;-84
2022/08/03 01:15:37;;;;;;;9.95;3.50;;;18.40;99.90;;;;;;5081816;28;20043;-84
2022/08/03 01:18:09;;;;;;;10.18;3.17;;;18.40;99.90;;;;;;5071184;27;20050;-84
2022/08/03 01:20:39;;;;;;;12.75;3.75;;;18.30;99.90;;;;;;5083739;27;20055;-84
2022/08/03 01:23:14;;;;;;;9.10;3.63;;;18.30;99.90;;;;;;5111598;27;20046;-84
2022/08/03 01:25:59;;;;;;;10.35;3.75;;;18.30;99.90;;;;;;5062715;27;20051;-83
2022/08/03 01:28:54;;;;;;;13.60;4.35;;;18.20;99.90;;;;;;5078142;27;20086;-83
2022/08/03 01:31:43;;;;;;;11.45;4.30;;;18.20;99.90;;;;;;5067682;27;20045;-84
2022/08/03 01:34:15;;;;;;;9.50;4.30;;;18.20;99.90;;;;;;5080985;27;20130;-84
2022/08/03 01:36:51;;;;;;;7.93;3.78;;;18.10;99.90;;;;;;5078223;28;20051;-84
2022/08/03 01:39:19;;;;;;;9.13;4.28;;;18.00;99.90;;;;;;5064591;27;20220;-84
2022/08/03 01:41:49;;;;;;;7.95;4.00;;;18.00;99.90;;;;;;5048287;27;20906;-84
2022/08/03 01:44:16;;;;;;;7.75;3.72;;;18.00;99.90;;;;;;5104022;27;20062;-84
2022/08/03 01:46:43;;;;;;;9.55;3.88;;;17.90;99.90;;;;;;5067795;27;20850;-84
2022/08/03 01:49:12;;;;;;;7.63;3.95;;;17.90;99.90;;;;;;5074055;27;20095;-84
2022/08/03 01:51:41;;;;;;;8.48;3.80;;;17.90;99.90;;;;;;5071193;27;20135;-85
2022/08/03 01:54:10;;;;;;;8.25;4.20;;;17.90;99.90;;;;;;5104112;27;20525;-84
2022/08/03 01:56:38;;;;;;;7.45;3.92;;;17.90;99.90;;;;;;5086131;27;20046;-84
2022/08/03 01:59:07;;;;;;;8.85;4.47;;;17.80;99.90;;;;;;5090989;27;20050;-84
2022/08/03 02:01:35;;;;;;;8.93;4.50;;;17.80;99.90;;;;;;5064827;27;20585;-84
2022/08/03 02:04:02;;;;;;;10.48;4.68;;;17.80;99.90;;;;;;5071800;27;20392;-84
2022/08/03 02:06:31;;;;;;;10.32;4.45;;;17.70;99.90;;;;;;5069362;27;20520;-84
2022/08/03 02:09:00;;;;;;;7.28;4.30;;;17.70;99.90;;;;;;5072112;27;20042;-84
2022/08/03 02:11:30;;;;;;;9.52;4.20;;;17.70;99.90;;;;;;5082119;27;20096;-84
2022/08/03 02:13:58;;;;;;;13.32;5.03;;;17.70;99.90;;;;;;5077895;27;20047;-84
2022/08/03 02:16:26;;;;;;;8.43;4.25;;;17.70;99.90;;;;;;5070086;27;20065;-84
2022/08/03 02:18:54;;;;;;;10.98;4.45;;;17.70;99.90;;;;;;5086913;27;20058;-84
2022/08/03 02:21:21;;;;;;;11.30;4.90;;;17.70;99.90;;;;;;5070143;27;20042;-84
2022/08/03 02:23:47;;;;;;;9.30;4.75;;;17.70;99.90;;;;;;5067744;27;20039;-84
2022/08/03 02:26:18;;;;;;;10.55;4.18;;;17.70;99.90;;;;;;5089008;27;20107;-84
2022/08/03 02:28:48;;;;;;;9.35;4.22;;;17.70;99.90;;;;;;5069854;27;20043;-84
2022/08/03 02:31:27;;;;;;;11.05;5.00;;;17.70;99.90;;;;;;5086627;27;20035;-84
2022/08/03 02:34:01;;;;;;;10.15;4.22;;;17.70;99.90;;;;;;5092703;27;20123;-84
2022/08/03 02:36:30;;;;;;;11.32;4.97;;;17.60;99.90;;;;;;5084634;27;20107;-84
2022/08/03 02:38:59;;;;;;;10.82;5.15;;;17.60;99.90;;;;;;5084968;27;20069;-84
2022/08/03 02:41:34;;;;;;;9.27;4.95;;;17.60;99.90;;;;;;5059983;27;20066;-83
2022/08/03 02:44:06;;;;;;;7.13;4.90;;;17.60;99.90;;;;;;5083236;27;20517;-84
2022/08/03 02:46:37;;;;;;;10.80;4.50;;;17.50;99.90;;;;;;5091918;28;20142;-83
2022/08/03 02:49:05;;;;;;;8.77;4.88;;;17.60;99.90;;;;;;5080714;28;20459;-83
2022/08/03 02:51:34;;;;;;;12.00;4.80;;;17.60;99.90;;;;;;5059895;28;20135;-83
2022/08/03 02:54:03;;;;;;;10.50;5.30;;;17.60;99.90;;;;;;5066221;28;20040;-84
2022/08/03 02:56:30;;;;;;;8.18;4.82;;;17.60;99.90;;;;;;5080861;28;20039;-83
2022/08/03 02:59:01;;;;;;;10.85;4.68;;;17.50;99.90;;;;;;5047024;28;20075;-83
2022/08/03 03:01:29;;;;;;;13.45;5.13;;;17.60;99.90;;;;;;5054484;28;20070;-84
2022/08/03 03:03:56;;;;;;;13.02;5.07;;;17.50;99.90;;;;;;5038379;28;20487;-83
2022/08/03 03:06:25;;;;;;;12.00;5.13;;;17.50;99.90;;;;;;5029995;28;20058;-84
2022/08/03 03:08:52;;;;;;;8.02;4.60;;;17.50;99.90;;;;;;5094007;28;20563;-84
2022/08/03 03:11:20;;;;;;;9.07;4.95;;;17.50;99.90;;;;;;5063204;28;20089;-84
2022/08/03 03:13:48;;;;;;;11.65;6.43;;;17.40;99.90;;;;;;5076945;28;20074;-84
2022/08/03 03:16:15;;;;;;;8.32;3.95;;;17.40;99.90;;;;;;5041745;28;20047;-83
2022/08/03 03:18:43;;;;;;;9.65;5.57;;;17.40;99.90;;;;;;5047690;28;20044;-84
2022/08/03 03:21:11;;;;;;;12.52;5.40;;;17.40;99.90;;;;;;5046393;28;20117;-83
2022/08/03 03:23:40;;;;;;;15.80;4.70;;;17.30;99.90;;;;;;5058147;28;20094;-84
2022/08/03 03:26:07;;;;;;;8.30;4.88;;;17.30;99.90;;;;;;5060546;28;20047;-83
2022/08/03 03:28:37;;;;;;;10.98;5.00;;;17.30;99.90;;;;;;5086072;28;20070;-83
2022/08/03 03:31:05;;;;;;;9.57;5.30;;;17.30;99.90;;;;;;5078277;28;20126;-84
2022/08/03 03:33:33;;;;;;;10.00;4.93;;;17.20;99.90;;;;;;5047868;28;20123;-83
2022/08/03 03:35:59;;;;;;;8.70;4.65;;;17.20;99.90;;;;;;5079810;28;20875;-84
2022/08/03 03:38:26;;;;;;;14.13;5.22;;;17.20;99.90;;;;;;5054545;28;20048;-84
2022/08/03 03:40:53;;;;;;;8.57;4.25;;;17.20;99.90;;;;;;5080625;28;20122;-84
2022/08/03 03:43:19;;;;;;;9.52;5.00;;;17.20;99.90;;;;;;5081140;28;20764;-84
2022/08/03 03:45:46;;;;;;;14.30;5.10;;;17.20;99.90;;;;;;5056749;28;20058;-84
2022/08/03 03:48:13;;;;;;;13.23;5.25;;;17.20;99.90;;;;;;5085569;28;20036;-84
2022/08/03 03:50:39;;;;;;;12.38;5.78;;;17.20;99.90;;;;;;5082058;28;20051;-85
2022/08/03 03:53:09;;;;;;;9.25;5.32;;;17.20;99.90;;;;;;5073905;28;20052;-84
2022/08/03 03:55:40;;;;;;;9.35;5.13;;;17.20;99.90;;;;;;5049516;28;20052;-84
2022/08/03 03:58:06;;;;;;;10.43;5.25;;;17.20;99.90;;;;;;5032479;28;20076;-84
2022/08/03 04:00:33;;;;;;;10.23;4.97;;;17.10;99.90;;;;;;5049735;28;20083;-84
2022/08/03 04:02:59;;;;;;;9.55;5.05;;;17.10;99.90;;;;;;5044728;28;20570;-85
2022/08/03 04:11:20;;;;;;;9.13;4.80;;;17.10;99.90;;;;;;5064452;28;20808;-84
2022/08/03 04:13:50;;;;;;;12.55;4.93;;;17.10;99.90;;;;;;5063986;28;20674;-84
2022/08/03 04:16:21;;;;;;;11.18;5.07;;;17.10;99.90;;;;;;5066690;28;20636;-84
2022/08/03 04:18:53;;;;;;;7.40;4.47;;;17.10;99.90;;;;;;5046820;28;20528;-85
2022/08/03 04:21:24;;;;;;;12.82;4.95;;;17.10;99.90;;;;;;5063071;28;20054;-84
2022/08/03 04:23:54;;;;;;;8.38;4.13;;;17.10;99.90;;;;;;5062116;28;20046;-85
2022/08/03 04:26:23;;;;;;;8.80;4.80;;;17.20;99.90;;;;;;5060329;28;20470;-84
2022/08/03 04:28:50;;;;;;;7.22;4.28;;;17.20;99.90;;;;;;5046437;28;20051;-85
2022/08/03 04:31:19;;;;;;;8.88;4.47;;;17.20;99.90;;;;;;5065946;28;20047;-84
2022/08/03 04:33:45;;;;;;;10.80;4.85;;;17.20;99.90;;;;;;5066662;28;20047;-85
2022/08/03 04:36:16;;;;;;;9.27;5.07;;;17.20;99.90;;;;;;5081363;28;20043;-84
2022/08/03 04:39:07;;;;;;;8.88;4.80;;;17.20;99.90;;;;;;5048157;28;20055;-84
2022/08/03 04:41:34;;;;;;;11.20;5.05;;;17.30;99.90;;;;;;5072053;28;20055;-84
2022/08/03 04:44:03;;;;;;;9.60;4.57;;;17.30;99.90;;;;;;5063190;28;20070;-85
2022/08/03 04:46:33;;;;;;;12.27;4.82;;;17.40;99.90;;;;;;5059404;28;20046;-84
2022/08/03 04:49:00;;;;;;;11.00;5.05;;;17.40;99.90;;;;;;5048035;28;20040;-84
2022/08/03 04:51:27;;;;;;;11.20;5.32;;;17.50;99.90;;;;;;5046591;28;20370;-84
2022/08/03 04:53:53;;;;;;;11.95;4.82;;;17.60;99.90;;;;;;5045748;28;20599;-85
2022/08/03 04:56:20;;;;;;;8.07;4.43;;;17.60;99.90;;;;;;5051234;28;20078;-85
2022/08/03 04:58:46;;;;;;;12.43;4.90;;;17.60;99.90;;;;;;5080905;28;20665;-85
2022/08/03 05:01:12;;;;;;;10.43;5.15;;;17.70;99.90;;;;;;5065234;28;20140;-83
2022/08/03 05:03:38;;;;;;;11.13;4.82;;;17.80;99.90;;;;;;5036973;28;20690;-83
2022/08/03 05:06:05;;;;;;;13.60;5.20;;;17.80;99.90;;;;;;5063694;28;20044;-84
2022/08/03 05:08:31;;;;;;;14.45;5.40;;;17.90;99.90;;;;;;5045697;28;20043;-84
2022/08/03 05:10:57;;;;;;;11.98;5.47;;;18.00;99.90;;;;;;5014434;28;20678;-84
2022/08/03 05:13:23;;;;;;;11.02;4.60;;;18.10;99.90;;;;;;5060876;28;20120;-84
2022/08/03 05:15:49;;;;;;;13.35;5.13;;;18.40;99.90;;;;;;5045205;28;20043;-84
2022/08/03 05:18:15;;;;;;;10.15;4.90;;;18.80;99.90;;;;;;5041369;28;20048;-85
2022/08/03 05:20:41;;;;;;;10.27;4.68;;;19.30;99.90;;;;;;5027370;28;20134;-84
2022/08/03 05:23:07;;;;;;;9.98;4.47;;;19.60;99.90;;;;;;5084205;28;20126;-85
2022/08/03 05:25:34;;;;;;;9.45;4.35;;;19.90;99.90;;;;;;5065188;28;20043;-85
2022/08/03 05:28:00;;;;;;;9.70;4.38;;;20.10;99.90;;;;;;5080109;28;20047;-87
2022/08/03 05:30:26;;;;;;;14.32;4.00;;;20.30;99.90;;;;;;5051949;28;20403;-86
2022/08/03 05:32:52;;;;;;;11.23;4.35;;;20.60;99.90;;;;;;5047786;28;20040;-83
2022/08/03 05:35:18;;;;;;;9.90;3.38;;;20.70;99.90;;;;;;5066562;28;20055;-83
2022/08/03 05:37:45;;;;;;;8.02;3.58;;;20.80;99.90;;;;;;5064694;28;20048;-83
2022/08/03 05:40:11;;;;;;;9.90;4.25;;;21.00;99.90;;;;;;5049841;28;20779;-84
2022/08/03 05:42:37;;;;;;;13.98;5.70;;;21.10;99.90;;;;;;5059818;28;20052;-84
2022/08/03 05:45:13;;;;;;;8.50;3.45;;;21.20;99.90;;;;;;5072476;27;20047;-84
2022/08/03 05:47:43;;;;;;;17.90;4.50;;;21.20;99.90;;;;;;5084183;28;20122;-84
2022/08/03 05:50:13;;;;;;;10.00;4.00;;;21.40;99.90;;;;;;5078061;27;20039;-83
2022/08/03 05:52:41;;;;;;;13.57;4.32;;;21.40;99.90;;;;;;5084538;28;20411;-84
2022/08/03 05:55:09;;;;;;;10.75;4.32;;;21.50;99.90;;;;;;5082419;27;20051;-84
2022/08/03 05:57:36;;;;;;;10.07;3.88;;;21.50;99.90;;;;;;5066381;27;20048;-84
2022/08/03 06:00:08;;;;;;;11.82;3.53;;;21.50;99.90;;;;;;5068383;27;20526;-83
2022/08/03 06:02:37;;;;;;;14.13;4.00;;;21.50;99.90;;;;;;5082091;28;20142;-82
2022/08/03 06:05:04;;;;;;;11.10;3.75;;;21.60;99.90;;;;;;5066283;27;20546;-83
2022/08/03 06:07:30;;;;;;;12.02;3.38;;;21.70;99.90;;;;;;5030733;27;20510;-84
2022/08/03 06:09:57;;;;;;;11.02;3.72;;;21.70;99.90;;;;;;5081664;28;20040;-82
2022/08/03 06:12:23;;;;;;;12.30;3.90;;;21.70;99.90;;;;;;5032336;27;20039;-82
2022/08/03 06:14:49;;;;;;;9.90;3.03;;;21.70;99.90;;;;;;5079678;27;20051;-82
2022/08/03 06:17:15;;;;;;;17.13;3.92;;;21.70;99.90;;;;;;5069521;28;20176;-82
2022/08/03 06:19:41;;;;;;;10.30;3.70;;;21.70;99.90;;;;;;5054658;27;20122;-83
2022/08/03 06:22:08;;;;;;;12.77;3.58;;;21.90;99.90;;;;;;5052074;27;20074;-83
2022/08/03 06:24:34;;;;;;;13.63;4.07;;;21.90;99.90;;;;;;5067049;27;20039;-84
2022/08/03 06:27:00;;;;;;;13.52;4.60;;;21.90;99.90;;;;;;5070008;27;20038;-85
2022/08/03 06:29:26;;;;;;;16.25;4.38;;;21.90;99.90;;;;;;5086266;28;20047;-84
2022/08/03 06:31:52;;;;;;;11.25;3.85;;;22.00;99.90;;;;;;5087173;27;20043;-87
2022/08/03 06:34:19;;;;;;;11.40;5.25;;;22.00;99.90;;;;;;5077796;27;20460;-88
2022/08/03 06:36:47;;;;;;;14.57;7.35;;;22.00;99.90;;;;;;5081765;27;20084;-87
2022/08/03 06:39:13;;;;;;;14.05;7.45;;;22.10;99.90;;;;;;5095636;27;20054;-88
2022/08/03 06:41:42;;;;;;;16.08;5.57;;;22.00;99.90;;;;;;5087835;27;20122;-87
2022/08/03 06:44:08;;;;;;;23.05;15.65;;;22.10;99.90;;;;;;5076849;27;20058;-87
2022/08/03 06:46:34;;;;;;;13.63;4.28;;;22.20;99.90;;;;;;5109820;28;20139;-89
2022/08/03 06:49:00;;;;;;;11.45;4.25;;;22.10;99.90;;;;;;5076622;27;20050;-91
2022/08/03 06:51:26;;;;;;;10.73;4.40;;;22.10;99.90;;;;;;5062028;28;20024;-86
2022/08/03 06:53:53;;;;;;;16.38;9.27;;;22.20;99.90;;;;;;5071936;27;20118;-88
2022/08/03 06:56:19;;;;;;;10.85;4.05;;;22.20;99.90;;;;;;5072518;27;20055;-90
2022/08/03 06:58:46;;;;;;;18.23;10.80;;;22.40;99.90;;;;;;5090552;28;20047;-88
2022/08/03 07:01:17;;;;;;;12.82;7.10;;;22.40;99.90;;;;;;5087921;28;20051;-93
2022/08/03 07:03:43;;;;;;;10.60;4.97;;;22.50;99.90;;;;;;5067744;27;20046;-86
2022/08/03 07:06:12;;;;;;;17.55;6.40;;;22.60;99.90;;;;;;5062439;27;20031;-87
2022/08/03 07:08:39;;;;;;;10.13;4.13;;;22.80;99.90;;;;;;5072536;27;20035;-86
2022/08/03 07:11:06;;;;;;;17.10;4.82;;;23.20;99.90;;;;;;5041012;28;20391;-87
2022/08/03 07:13:32;;;;;;;16.10;7.50;;;23.30;99.90;;;;;;5050432;27;20048;-87
2022/08/03 07:15:59;;;;;;;16.00;6.60;;;23.40;99.90;;;;;;5090275;28;20127;-87
2022/08/03 07:18:25;;;;;;;13.93;4.03;;;23.30;99.90;;;;;;5061508;28;20498;-87
2022/08/03 07:20:51;;;;;;;14.07;4.30;;;23.30;99.90;;;;;;5060527;28;20096;-87
2022/08/03 07:23:17;;;;;;;12.00;4.28;;;23.30;99.90;;;;;;5077087;28;20039;-87
2022/08/03 07:25:43;;;;;;;15.93;3.97;;;23.30;99.90;;;;;;5055998;28;20047;-87
2022/08/03 07:28:10;;;;;;;12.80;4.80;;;23.50;99.90;;;;;;5062148;28;20031;-87
2022/08/03 07:30:36;;;;;;;10.63;4.03;;;23.60;99.90;;;;;;5078017;28;20075;-87
2022/08/03 07:33:02;;;;;;;15.15;4.22;;;23.70;99.90;;;;;;5059396;28;20042;-87
2022/08/03 07:35:28;;;;;;;14.55;5.07;;;23.90;99.90;;;;;;5108528;28;20097;-87
2022/08/03 07:37:55;;;;;;;12.90;4.70;;;23.90;99.90;;;;;;5076553;28;20386;-87
2022/08/03 07:40:21;;;;;;;11.18;3.58;;;23.90;99.90;;;;;;5076960;28;20050;-87
2022/08/03 07:42:47;;;;;;;15.48;3.63;;;24.10;99.90;;;;;;5071245;28;20051;-87
2022/08/03 07:45:13;;;;;;;13.15;3.80;;;24.00;99.90;;;;;;5078712;28;20503;-86
2022/08/03 07:47:40;;;;;;;9.70;3.58;;;24.00;99.90;;;;;;5104796;28;20180;-86
2022/08/03 07:50:07;;;;;;;12.05;4.00;;;24.10;99.90;;;;;;5093195;28;20035;-89
2022/08/03 07:52:49;;;;;;;21.17;14.45;;;24.50;99.90;;;;;;5078042;28;20047;-93
2022/08/03 07:55:24;;;;;;;16.33;8.52;;;24.80;99.90;;;;;;5060434;28;20078;-91
2022/08/03 07:58:21;;;;;;;12.07;3.63;;;24.90;99.90;;;;;;5080563;28;20098;-86
2022/08/03 08:00:49;;;;;;;12.95;3.60;;;25.40;99.90;;;;;;5081682;28;20523;-87
2022/08/03 08:03:16;;;;;;;13.02;3.92;;;25.30;99.90;;;;;;5074829;28;20071;-86
2022/08/03 08:05:42;;;;;;;13.20;3.92;;;25.40;99.90;;;;;;5077326;28;20044;-86
2022/08/03 08:08:08;;;;;;;12.13;3.10;;;25.80;99.90;;;;;;5051214;28;20042;-87
2022/08/03 08:10:35;;;;;;;15.43;4.32;;;26.10;99.90;;;;;;5064288;27;20940;-84
2022/08/03 08:13:03;;;;;;;13.77;4.22;;;26.10;99.90;;;;;;5086542;27;20043;-84
2022/08/03 08:15:30;;;;;;;15.95;4.07;;;26.30;99.90;;;;;;5089842;27;20803;-86
2022/08/03 08:17:59;;;;;;;11.05;3.35;;;25.90;99.90;;;;;;5090262;27;20768;-87
2022/08/03 08:20:29;;;;;;;13.07;3.95;;;26.00;99.90;;;;;;5068841;28;20039;-86
2022/08/03 08:22:57;;;;;;;12.65;3.80;;;26.00;99.90;;;;;;5065457;27;20073;-85
2022/08/03 08:25:25;;;;;;;12.23;3.67;;;26.20;99.90;;;;;;5074624;27;20039;-85
2022/08/03 08:27:51;;;;;;;12.48;3.08;;;26.40;99.90;;;;;;5097659;27;20052;-86
2022/08/03 08:30:21;;;;;;;10.48;2.88;;;26.80;99.90;;;;;;5088203;27;20127;-86
2022/08/03 08:32:48;;;;;;;12.73;3.15;;;26.90;99.90;;;;;;5092686;27;20055;-86
2022/08/03 08:35:16;;;;;;;10.57;3.45;;;27.10;99.90;;;;;;5086733;27;20039;-86
2022/08/03 08:37:43;;;;;;;13.55;3.80;;;27.50;99.90;;;;;;5065671;27;20066;-85
2022/08/03 08:40:10;;;;;;;13.25;3.92;;;27.40;99.90;;;;;;5089380;27;20046;-86
2022/08/03 08:42:37;;;;;;;10.50;3.20;;;27.50;99.90;;;;;;5085843;28;20479;-85
2022/08/03 08:45:05;;;;;;;14.80;3.65;;;27.50;99.90;;;;;;5061766;28;20420;-85
2022/08/03 08:47:35;;;;;;;11.63;3.40;;;27.60;99.90;;;;;;5075715;28;20047;-83
2022/08/03 08:50:02;;;;;;;12.35;3.20;;;27.80;99.90;;;;;;5047825;28;20044;-85
2022/08/03 08:52:29;;;;;;;12.52;3.88;;;28.20;99.90;;;;;;5040614;27;20035;-86
2022/08/03 08:54:58;;;;;;;14.65;3.58;;;28.20;99.90;;;;;;5014728;28;20401;-86
2022/08/03 08:57:30;;;;;;;18.23;6.70;;;28.40;99.90;;;;;;5055601;28;20039;-85
2022/08/03 08:59:57;;;;;;;13.70;3.92;;;28.60;99.90;;;;;;5063121;27;20085;-86
2022/08/03 09:02:24;;;;;;;11.55;5.70;;;28.80;99.90;;;;;;5081376;27;20066;-86
2022/08/03 09:04:50;;;;;;;9.10;3.08;;;29.00;99.90;;;;;;5066197;28;20125;-86
2022/08/03 09:07:17;;;;;;;11.80;3.67;;;28.80;99.90;;;;;;5053306;28;20496;-85
2022/08/03 09:09:43;;;;;;;9.23;3.08;;;28.70;99.90;;;;;;5067132;28;20063;-88
2022/08/03 09:12:13;;;;;;;13.93;3.00;;;29.00;99.90;;;;;;5063233;28;20073;-88
2022/08/03 09:14:39;;;;;;;13.63;3.33;;;29.00;99.90;;;;;;5042920;28;20043;-87
2022/08/03 09:17:06;;;;;;;9.52;3.92;;;29.20;99.90;;;;;;5072750;27;20047;-87
2022/08/03 09:19:34;;;;;;;13.05;3.10;;;29.30;99.90;;;;;;5068260;28;20153;-85
2022/08/03 09:22:07;;;;;;;9.50;3.00;;;29.40;99.90;;;;;;5070406;27;20224;-85
2022/08/03 09:24:33;;;;;;;8.55;2.67;;;29.50;99.90;;;;;;5055795;28;20392;-84
2022/08/03 09:26:59;;;;;;;11.77;5.20;;;29.60;99.90;;;;;;5066307;28;20155;-84
2022/08/03 09:29:26;;;;;;;14.40;3.75;;;29.90;99.90;;;;;;5065536;28;20035;-85
2022/08/03 09:32:01;;;;;;;14.88;4.53;;;30.00;99.90;;;;;;5051173;27;20074;-84
2022/08/03 09:34:27;;;;;;;13.80;3.67;;;30.10;99.90;;;;;;5070452;27;20402;-86
2022/08/03 09:36:56;;;;;;;12.65;3.50;;;30.30;99.90;;;;;;5054285;28;20159;-87
2022/08/03 09:39:25;;;;;;;11.63;3.13;;;30.50;99.90;;;;;;5065716;28;20039;-82
2022/08/03 09:42:06;;;;;;;10.70;2.85;;;30.70;99.90;;;;;;5051641;27;20118;-84
2022/08/03 09:44:37;;;;;;;8.45;2.35;;;30.80;99.90;;;;;;5048396;28;20044;-85
2022/08/03 09:47:04;;;;;;;15.48;4.80;;;31.10;99.90;;;;;;5065766;27;20578;-86
2022/08/03 09:49:30;;;;;;;10.77;4.85;;;31.40;99.90;;;;;;5061157;28;20042;-87
2022/08/03 09:52:01;;;;;;;8.63;3.25;;;31.80;99.90;;;;;;5051764;27;20062;-87
2022/08/03 09:54:29;;;;;;;10.90;3.17;;;31.90;99.60;;;;;;5094813;27;20050;-87
2022/08/03 09:56:57;;;;;;;11.07;2.95;;;31.80;99.20;;;;;;5067798;27;20043;-87
2022/08/03 09:59:26;;;;;;;14.98;3.63;;;31.50;98.20;;;;;;5054363;27;20511;-86
2022/08/03 10:01:53;;;;;;;11.25;2.97;;;31.60;98.80;;;;;;5083235;28;20710;-86
2022/08/03 10:04:19;;;;;;;11.88;3.40;;;31.60;98.30;;;;;;5044287;27;20140;-87
2022/08/03 10:07:01;;;;;;;11.38;4.03;;;31.50;98.30;;;;;;5061508;27;20047;-87
2022/08/03 10:09:27;;;;;;;11.80;3.60;;;31.50;96.70;;;;;;5068334;27;20411;-87
2022/08/03 10:11:54;;;;;;;13.45;3.13;;;31.60;97.70;;;;;;5068008;27;20138;-86
2022/08/03 10:14:22;;;;;;;15.95;3.92;;;31.40;97.40;;;;;;5096896;27;20050;-86
2022/08/03 10:16:48;;;;;;;10.23;3.25;;;31.00;97.70;;;;;;5068380;27;20084;-86
2022/08/03 10:19:15;;;;;;;9.13;3.05;;;31.40;98.90;;;;;;5110625;27;20061;-86
2022/08/03 10:21:50;;;;;;;15.00;4.10;;;31.70;96.40;;;;;;5049555;27;20040;-88
2022/08/03 10:24:24;;;;;;;13.20;3.08;;;32.00;95.50;;;;;;5070921;27;20070;-87
2022/08/03 10:27:00;;;;;;;11.07;3.42;;;32.20;94.70;;;;;;5091669;27;20039;-87
2022/08/03 10:29:28;;;;;;;13.18;3.88;;;32.40;93.90;;;;;;5085435;27;20043;-86
2022/08/03 10:31:58;;;;;;;13.00;3.13;;;32.50;93.50;;;;;;5070788;27;20035;-86
2022/08/03 10:34:34;;;;;;;14.73;3.38;;;32.20;91.80;;;;;;5085890;27;20042;-86
2022/08/03 10:37:05;;;;;;;13.73;3.25;;;32.20;94.80;;;;;;5076252;28;20702;-86
2022/08/03 10:39:31;;;;;;;16.10;3.35;;;32.50;92.90;;;;;;5098467;27;20058;-86
2022/08/03 10:41:58;;;;;;;12.38;3.90;;;32.60;94.20;;;;;;5034486;28;20062;-86
2022/08/03 10:44:29;;;;;;;15.13;3.50;;;32.70;94.00;;;;;;5047204;27;20043;-87
2022/08/03 10:46:56;;;;;;;13.27;3.50;;;32.40;89.00;;;;;;5107274;27;20055;-86
2022/08/03 10:49:23;;;;;;;12.43;3.83;;;32.50;91.10;;;;;;5041461;28;20036;-86
2022/08/03 10:51:49;;;;;;;12.93;3.15;;;32.80;84.50;;;;;;5032710;28;20044;-87
2022/08/03 10:57:45;;;;;;;14.27;3.95;;;33.40;80.50;;;;;;5069030;28;20144;-86
2022/08/03 11:00:22;;;;;;;13.45;3.13;;;33.50;74.20;;;;;;5082302;28;20047;-86
2022/08/03 11:03:16;;;;;;;12.93;3.60;;;33.80;84.60;;;;;;5072198;28;20583;-87
2022/08/03 11:05:45;;;;;;;12.55;4.70;;;34.20;74.70;;;;;;5045843;28;20543;-86
2022/08/03 11:08:21;;;;;;;15.32;3.30;;;34.80;77.50;;;;;;5056634;28;20039;-87
2022/08/03 11:10:49;;;;;;;12.43;3.53;;;35.00;66.50;;;;;;5047413;28;21799;-86
2022/08/03 11:13:17;;;;;;;12.73;3.05;;;34.70;63.90;;;;;;5053104;28;20050;-87
2022/08/03 11:15:46;;;;;;;16.20;3.78;;;34.70;63.90;;;;;;5075576;28;20054;-86
2022/08/03 11:18:14;;;;;;;15.00;3.83;;;34.70;65.10;;;;;;5066893;28;20047;-87
2022/08/03 11:20:47;;;;;;;13.98;3.60;;;35.00;62.70;;;;;;5057554;28;20059;-86
2022/08/03 11:23:37;;;;;;;13.50;3.63;;;34.80;60.40;;;;;;5079960;28;20152;-87
2022/08/03 11:26:17;;;;;;;14.63;3.53;;;34.70;60.60;;;;;;5049427;28;20069;-87
2022/08/03 11:28:45;;;;;;;11.23;3.17;;;34.20;60.20;;;;;;5065933;28;20127;-84
2022/08/03 11:31:37;;;;;;;14.88;4.18;;;34.00;60.00;;;;;;5068169;28;20546;-87
2022/08/03 11:34:08;;;;;;;12.63;3.60;;;33.90;59.80;;;;;;5099626;28;20368;-86
2022/08/03 11:37:12;;;;;;;11.00;3.10;;;34.00;59.40;;;;;;5054249;28;20306;-86
2022/08/03 11:39:42;;;;;;;10.25;3.10;;;33.90;61.10;;;;;;5083051;28;20515;-86
2022/08/03 11:42:24;;;;;;;14.95;4.05;;;34.50;61.90;;;;;;5039849;28;20103;-86
2022/08/03 11:44:58;;;;;;;15.35;3.60;;;34.60;59.90;;;;;;5069385;28;20044;-87
2022/08/03 11:47:29;;;;;;;13.75;3.58;;;34.50;59.00;;;;;;5055985;27;20097;-86
2022/08/03 11:49:58;;;;;;;10.95;2.90;;;34.30;58.40;;;;;;5077817;27;20047;-86
2022/08/03 11:52:26;;;;;;;13.13;3.30;;;34.30;57.60;;;;;;5079192;27;20069;-85
2022/08/03 11:54:53;;;;;;;10.85;3.67;;;34.30;58.90;;;;;;5071272;28;20333;-86
2022/08/03 11:57:33;;;;;;;15.07;3.22;;;34.30;57.90;;;;;;5098321;27;20035;-87
2022/08/03 12:00:00;;;;;;;15.85;3.70;;;34.30;55.70;;;;;;5043200;28;20638;-84
2022/08/03 12:02:26;;;;;;;17.50;3.55;;;34.40;57.30;;;;;;5105235;27;20046;-84
2022/08/03 12:04:59;;;;;;;13.38;3.97;;;34.90;57.70;;;;;;5069920;27;20073;-88
2022/08/03 12:07:27;;;;;;;10.40;3.42;;;34.80;56.60;;;;;;5050564;27;20047;-86
2022/08/03 12:10:07;;;;;;;18.77;4.53;;;34.80;56.30;;;;;;5070376;27;20191;-87
2022/08/03 12:12:34;;;;;;;15.98;3.53;;;34.50;55.50;;;;;;5073144;27;20092;-87
2022/08/03 12:15:01;;;;;;;14.45;4.50;;;34.70;55.70;;;;;;5088469;27;20102;-87
2022/08/03 12:17:40;;;;;;;14.60;3.85;;;34.50;55.80;;;;;;5069942;28;20055;-85
2022/08/03 12:20:08;;;;;;;11.07;2.67;;;35.00;55.60;;;;;;5065756;27;20089;-84
2022/08/03 12:22:37;;;;;;;13.73;3.40;;;35.20;55.00;;;;;;5070105;27;20564;-85
2022/08/03 12:25:07;;;;;;;15.25;3.45;;;35.40;54.70;;;;;;5081793;27;20031;-84
2022/08/03 12:27:34;;;;;;;12.60;3.28;;;35.70;52.80;;;;;;5073042;27;20083;-85
2022/08/03 12:30:01;;;;;;;14.48;3.95;;;35.40;53.30;;;;;;5065859;28;20538;-85
2022/08/03 12:32:28;;;;;;;13.82;3.65;;;35.60;53.40;;;;;;5048201;27;20043;-85
2022/08/03 12:34:59;;;;;;;14.20;2.50;;;35.70;52.40;;;;;;5085586;27;20558;-85
2022/08/03 12:37:26;;;;;;;13.52;3.08;;;35.30;53.40;;;;;;5083861;27;20181;-84
2022/08/03 12:39:54;;;;;;;11.23;2.63;;;35.30;54.20;;;;;;5069264;27;20110;-84
2022/08/03 12:42:20;;;;;;;11.60;3.25;;;35.80;51.50;;;;;;5073102;27;20043;-85
2022/08/03 12:44:48;;;;;;;12.88;3.28;;;35.80;51.40;;;;;;5085250;28;20071;-85
2022/08/03 12:47:15;;;;;;;12.02;2.97;;;35.70;52.20;;;;;;5077741;28;20040;-85
2022/08/03 12:49:52;;;;;;;11.00;2.88;;;35.60;51.90;;;;;;5100165;27;20051;-85
2022/08/03 12:52:21;;;;;;;15.80;2.90;;;35.60;51.60;;;;;;5068629;28;20074;-84
2022/08/03 12:55:06;;;;;;;12.38;2.97;;;35.90;51.30;;;;;;5052016;27;20051;-85
2022/08/03 12:57:42;;;;;;;10.18;2.60;;;35.60;49.60;;;;;;5066021;27;20044;-85
2022/08/03 13:00:13;;;;;;;9.25;2.90;;;35.50;50.10;;;;;;5071153;27;20084;-85